Flight Track Log - Related Links

Times and Time Zones

All times are in EDT time to prevent confusion due to time zone crossing. See the AWI3778 flight status page for this flight to view local times or setup timezone preferences in your user account.

Time Position Orientation Groundspeed Altitude Reporting Facility
EDT Latitude Longitude Course Direction KTS MPH feet Rate Location/Type
Tue 02:49:17 PM 44.2739 -73.1069 197° South 221 254 8,800  Level Boston Center
Tue 02:50:17 PM 44.2031 -73.1408 199° South 259 298 11,000 2,083 Climbing Boston Center
Tue 02:51:00 PM 43.8807 -73.3738 195° South  Level FlightAware Approximate
Tue 02:51:18 PM 44.1297 -73.1747 198° South 279 321 13,000  Level Boston Center
Tue 02:52:00 PM 43.7827 -73.4100 195° South  Level FlightAware Approximate
Tue 02:52:18 PM 44.0628 -73.2347 213° Southwest 290 334 14,500  Level Boston Center
Tue 02:53:00 PM 43.6846 -73.4462 195° South  Level FlightAware Approximate
Tue 02:53:16 PM 43.9892 -73.3028 214° Southwest 308 354 16,100  Level Boston Center
Tue 02:54:17 PM 43.9181 -73.3711 215° Southwest 313 360 17,600 1,537 Climbing Boston Center
Tue 02:55:17 PM 43.8422 -73.4417 214° Southwest 320 368 19,200 1,190 Climbing Boston Center
Tue 02:56:18 PM 43.7686 -73.5125 215° Southwest 320 368 20,000 361 Climbing Boston Center
Tue 02:57:30 PM 43.6867 -73.5886 214° Southwest 346 398 20,000 677 Level Boston Center
Tue 02:58:31 PM 43.5942 -73.6728 213° Southwest 361 415 21,500 1,678 Climbing Boston Center
Tue 02:59:28 PM 43.5142 -73.7456 213° Southwest 361 415 23,300 1,780 Climbing Boston Center
Tue 03:00:29 PM 43.4383 -73.8183 215° Southwest 350 403 25,000 1,339 Climbing Boston Center
Tue 03:01:29 PM 43.3667 -73.8853 214° Southwest 333 383 26,000 496 Climbing Boston Center
Tue 03:02:30 PM 43.2886 -73.9547 213° Southwest 333 383 26,000  Level Boston Center
Tue 03:03:30 PM 43.2042 -74.0353 215° Southwest 349 402 26,000  Level Boston Center
Tue 03:04:28 PM 43.1156 -74.1125 212° Southwest 373 429 26,000  Level Boston Center
Tue 03:05:28 PM 43.0267 -74.1981 215° Southwest 388 447 26,000  Level Boston Center
Tue 03:06:29 PM 42.9336 -74.2806 213° Southwest 395 455 26,000  Level Boston Center
Tue 03:07:29 PM 42.8383 -74.3683 214° Southwest 408 470 26,000  Level Boston Center
Tue 03:08:30 PM 42.7453 -74.4503 213° Southwest 408 470 26,000  Level Boston Center
Tue 03:09:30 PM 42.6711 -74.5156 213° Southwest 408 470 26,000  Level Boston Center
Tue 03:10:28 PM 42.5586 -74.6219 215° Southwest 408 470 26,000 -458 Level Boston Center
Tue 03:11:28 PM 42.4611 -74.7056 212° Southwest 408 470 25,100 -1,140 Descending Boston Center
Tue 03:12:29 PM 42.3633 -74.7947 214° Southwest 420 483 23,700 -1,377 Descending Boston Center
Tue 03:13:30 PM 42.2806 -74.8675 213° Southwest 398 458 22,300 -843 Descending Boston Center
Tue 03:14:30 PM 42.2042 -74.9347 213° Southwest 363 418 22,000 -808 Descending Boston Center
Tue 03:16:06 PM 42.0606 -75.0558 212° Southwest 349 402 20,200 -1,146 Descending New York Center
Tue 03:17:07 PM 41.9703 -75.1308 212° Southwest 365 420 19,000 -590 Descending New York Center
Tue 03:18:08 PM 41.8867 -75.1978 211° Southwest 376 433 19,000 -303 Level New York Center
Tue 03:19:06 PM 41.8094 -75.2594 211° Southwest 371 427 18,400 -1,210 Descending New York Center
Tue 03:20:07 PM 41.7233 -75.3314 212° Southwest 371 427 16,600 -1,785 Descending New York Center
Tue 03:21:07 PM 41.6267 -75.4081 211° Southwest 376 433 14,800 -1,686 Descending New York Center
Tue 03:22:08 PM 41.5383 -75.4797 211° Southwest 376 433 13,200 -1,388 Descending New York Center
Tue 03:23:08 PM 41.4525 -75.5483 211° Southwest 376 433 12,000 -610 Descending New York Center
Tue 03:24:06 PM 41.3814 -75.6042 211° Southwest 350 403 12,000  Level New York Center
Tue 03:25:07 PM 41.2975 -75.6672 209° Southwest 332 382 12,000  Level New York Center
Tue 03:26:07 PM 41.2136 -75.6858 189° South 311 358 12,000  Level New York Center
Tue 03:27:06 PM 41.1239 -75.6875 181° South 317 365 12,000  Level New York Center
Tue 03:28:06 PM 41.0303 -75.6864 179° South 334 384 12,000  Level New York Center
Tue 03:29:06 PM 40.9364 -75.6878 181° South 334 384 12,000 -397 Level New York Center
Tue 03:30:07 PM 40.8447 -75.6867 179° South 334 384 11,200 -885 Descending New York Center
Tue 03:31:08 PM 40.7572 -75.6858 180° South 329 379 10,200 -595 Descending New York Center
Tue 03:32:08 PM 40.6803 -75.6858 180° South 324 373 10,000 -102 Descending New York Center
Tue 03:33:06 PM 40.5869 -75.6708 173° South 311 358 10,000  Level New York Center
Tue 03:34:07 PM 40.5300 -75.5850 131° Southeast 299 344 10,000 -148 Level New York Center
Tue 03:35:08 PM 40.4797 -75.4886 124° Southeast 304 350 9,700 -492 Descending New York Center
Tue 03:36:09 PM 40.4331 -75.4092 128° Southeast 316 364 9,000 -1,008 Descending New York Center
Tue 03:37:07 PM 40.3514 -75.3600 155° Southeast 293 337 7,700 -1,613 Descending New York Center
Tue 03:38:08 PM 40.2781 -75.3197 157° South 293 337 5,800 -1,770 Descending New York Center
Tue 03:39:09 PM 40.1958 -75.2872 163° South 293 337 4,100 -893 Descending New York Center
Tue 03:40:09 PM 40.1167 -75.2500 160° South 283 326 4,000 -50 Descending Philadelphia TRACON
Tue 03:41:09 PM 40.0500 -75.2167 159° South 230 265 4,000  Level Philadelphia TRACON
Tue 03:42:15 PM 39.9833 -75.1833 159° South 221 254 4,000  Level Philadelphia TRACON
Tue 03:43:09 PM 39.9333 -75.1667 166° South 225 259 4,000 -278 Level Philadelphia TRACON
Tue 03:44:03 PM 39.8833 -75.1333 153° Southeast 192 221 3,500 -936 Descending Philadelphia TRACON
Tue 03:44:58 PM 39.8500 -75.1167 159° South 189 217 2,300 -714 Descending Philadelphia TRACON
Tue 03:46:09 PM 39.8000 -75.1500 207° Southwest 167 192 2,000 -384 Descending Philadelphia TRACON
Tue 03:47:03 PM 39.8167 -75.2000 293° West 142 163 1,500 -750 Descending Philadelphia TRACON
Tue 03:48:09 PM 39.8500 -75.2167 339° North 140 161 500 -909 Descending Philadelphia TRACON

Login

Don't have an account? Register now (free) for customized features, flight alerts, and more!